sensor_id;sensor_type;location;lat;lon;timestamp;P1;durP1;ratioP1;P2;durP2;ratioP2
45039;SDS011;30778;53.574;7.770;2023-04-15T00:01:18;9.07;;;5.07;;
45039;SDS011;30778;53.574;7.770;2023-04-15T00:03:43;7.50;;;4.22;;
45039;SDS011;30778;53.574;7.770;2023-04-15T00:06:10;7.57;;;4.90;;
45039;SDS011;30778;53.574;7.770;2023-04-15T00:08:36;7.78;;;4.07;;
45039;SDS011;30778;53.574;7.770;2023-04-15T00:11:01;7.50;;;4.75;;
45039;SDS011;30778;53.574;7.770;2023-04-15T00:13:30;6.50;;;4.47;;
45039;SDS011;30778;53.574;7.770;2023-04-15T00:15:57;10.35;;;5.70;;
45039;SDS011;30778;53.574;7.770;2023-04-15T00:18:23;6.97;;;4.80;;
45039;SDS011;30778;53.574;7.770;2023-04-15T00:20:48;7.82;;;4.28;;
45039;SDS011;30778;53.574;7.770;2023-04-15T00:23:16;8.13;;;4.60;;
45039;SDS011;30778;53.574;7.770;2023-04-15T00:25:42;10.60;;;4.05;;
45039;SDS011;30778;53.574;7.770;2023-04-15T00:28:07;11.15;;;4.72;;
45039;SDS011;30778;53.574;7.770;2023-04-15T00:30:33;12.55;;;5.00;;
45039;SDS011;30778;53.574;7.770;2023-04-15T00:32:59;10.88;;;4.53;;
45039;SDS011;30778;53.574;7.770;2023-04-15T00:35:26;7.82;;;5.32;;
45039;SDS011;30778;53.574;7.770;2023-04-15T00:37:52;7.00;;;4.28;;
45039;SDS011;30778;53.574;7.770;2023-04-15T00:40:18;7.70;;;4.35;;
45039;SDS011;30778;53.574;7.770;2023-04-15T00:42:45;9.98;;;4.97;;
45039;SDS011;30778;53.574;7.770;2023-04-15T00:45:12;5.88;;;3.67;;
45039;SDS011;30778;53.574;7.770;2023-04-15T00:47:38;10.88;;;4.95;;
45039;SDS011;30778;53.574;7.770;2023-04-15T00:50:06;8.07;;;5.28;;
45039;SDS011;30778;53.574;7.770;2023-04-15T00:52:32;9.25;;;5.00;;
45039;SDS011;30778;53.574;7.770;2023-04-15T00:54:59;9.57;;;4.90;;
45039;SDS011;30778;53.574;7.770;2023-04-15T00:57:25;10.70;;;5.35;;
45039;SDS011;30778;53.574;7.770;2023-04-15T00:59:52;9.20;;;4.78;;
45039;SDS011;30778;53.574;7.770;2023-04-15T01:02:20;8.80;;;5.35;;
45039;SDS011;30778;53.574;7.770;2023-04-15T01:04:46;7.43;;;4.28;;
45039;SDS011;30778;53.574;7.770;2023-04-15T01:07:12;5.95;;;4.40;;
45039;SDS011;30778;53.574;7.770;2023-04-15T01:09:38;8.88;;;4.75;;
45039;SDS011;30778;53.574;7.770;2023-04-15T01:12:05;8.70;;;5.20;;
45039;SDS011;30778;53.574;7.770;2023-04-15T01:14:32;7.95;;;4.78;;
45039;SDS011;30778;53.574;7.770;2023-04-15T01:16:58;9.07;;;4.57;;
45039;SDS011;30778;53.574;7.770;2023-04-15T01:19:23;7.60;;;4.40;;
45039;SDS011;30778;53.574;7.770;2023-04-15T01:21:49;10.25;;;5.65;;
45039;SDS011;30778;53.574;7.770;2023-04-15T01:24:16;7.00;;;4.63;;
45039;SDS011;30778;53.574;7.770;2023-04-15T01:26:42;6.90;;;5.05;;
45039;SDS011;30778;53.574;7.770;2023-04-15T01:29:08;7.00;;;3.90;;
45039;SDS011;30778;53.574;7.770;2023-04-15T01:31:34;5.38;;;3.63;;
45039;SDS011;30778;53.574;7.770;2023-04-15T01:34:00;9.93;;;5.50;;
45039;SDS011;30778;53.574;7.770;2023-04-15T01:36:28;9.73;;;4.45;;
45039;SDS011;30778;53.574;7.770;2023-04-15T01:38:54;7.35;;;3.78;;
45039;SDS011;30778;53.574;7.770;2023-04-15T01:41:25;8.77;;;4.47;;
45039;SDS011;30778;53.574;7.770;2023-04-15T01:43:51;7.90;;;4.38;;
45039;SDS011;30778;53.574;7.770;2023-04-15T01:46:17;10.63;;;5.00;;
45039;SDS011;30778;53.574;7.770;2023-04-15T01:48:42;7.47;;;4.28;;
45039;SDS011;30778;53.574;7.770;2023-04-15T01:51:10;9.35;;;5.30;;
45039;SDS011;30778;53.574;7.770;2023-04-15T01:53:37;5.55;;;3.33;;
45039;SDS011;30778;53.574;7.770;2023-04-15T01:56:02;6.95;;;4.43;;
45039;SDS011;30778;53.574;7.770;2023-04-15T01:58:28;10.15;;;4.53;;
45039;SDS011;30778;53.574;7.770;2023-04-15T02:00:53;5.80;;;4.35;;
45039;SDS011;30778;53.574;7.770;2023-04-15T02:03:19;6.72;;;4.00;;
45039;SDS011;30778;53.574;7.770;2023-04-15T02:05:44;5.72;;;3.78;;
45039;SDS011;30778;53.574;7.770;2023-04-15T02:08:10;6.60;;;4.03;;
45039;SDS011;30778;53.574;7.770;2023-04-15T02:10:37;9.02;;;3.97;;
45039;SDS011;30778;53.574;7.770;2023-04-15T02:13:03;7.78;;;4.60;;
45039;SDS011;30778;53.574;7.770;2023-04-15T02:15:29;7.53;;;4.82;;
45039;SDS011;30778;53.574;7.770;2023-04-15T02:17:57;8.60;;;3.80;;
45039;SDS011;30778;53.574;7.770;2023-04-15T02:20:23;5.78;;;3.78;;
45039;SDS011;30778;53.574;7.770;2023-04-15T02:22:49;5.95;;;3.75;;
45039;SDS011;30778;53.574;7.770;2023-04-15T02:25:14;7.25;;;3.83;;
45039;SDS011;30778;53.574;7.770;2023-04-15T02:27:44;6.50;;;4.03;;
45039;SDS011;30778;53.574;7.770;2023-04-15T02:30:09;5.95;;;4.20;;
45039;SDS011;30778;53.574;7.770;2023-04-15T02:32:35;8.80;;;5.10;;
45039;SDS011;30778;53.574;7.770;2023-04-15T02:35:03;9.27;;;4.55;;
45039;SDS011;30778;53.574;7.770;2023-04-15T02:37:34;5.32;;;3.47;;
45039;SDS011;30778;53.574;7.770;2023-04-15T02:40:07;7.10;;;3.97;;
45039;SDS011;30778;53.574;7.770;2023-04-15T02:42:36;7.45;;;3.80;;
45039;SDS011;30778;53.574;7.770;2023-04-15T02:45:02;8.63;;;4.40;;
45039;SDS011;30778;53.574;7.770;2023-04-15T02:47:32;8.77;;;4.22;;
45039;SDS011;30778;53.574;7.770;2023-04-15T02:49:58;7.25;;;4.18;;
45039;SDS011;30778;53.574;7.770;2023-04-15T02:52:27;10.65;;;4.80;;
45039;SDS011;30778;53.574;7.770;2023-04-15T02:54:52;5.85;;;3.67;;
45039;SDS011;30778;53.574;7.770;2023-04-15T02:57:21;11.23;;;4.60;;
45039;SDS011;30778;53.574;7.770;2023-04-15T02:59:47;10.95;;;4.80;;
45039;SDS011;30778;53.574;7.770;2023-04-15T03:02:12;8.20;;;4.55;;
45039;SDS011;30778;53.574;7.770;2023-04-15T03:04:38;6.50;;;3.55;;
45039;SDS011;30778;53.574;7.770;2023-04-15T03:07:03;8.95;;;4.85;;
45039;SDS011;30778;53.574;7.770;2023-04-15T03:09:30;7.03;;;4.38;;
45039;SDS011;30778;53.574;7.770;2023-04-15T03:11:57;7.78;;;4.80;;
45039;SDS011;30778;53.574;7.770;2023-04-15T03:14:23;6.63;;;4.10;;
45039;SDS011;30778;53.574;7.770;2023-04-15T03:16:48;11.25;;;5.00;;
45039;SDS011;30778;53.574;7.770;2023-04-15T03:19:16;11.13;;;5.13;;
45039;SDS011;30778;53.574;7.770;2023-04-15T03:21:42;9.48;;;4.75;;
45039;SDS011;30778;53.574;7.770;2023-04-15T03:24:10;11.15;;;5.00;;
45039;SDS011;30778;53.574;7.770;2023-04-15T03:26:35;6.68;;;3.92;;
45039;SDS011;30778;53.574;7.770;2023-04-15T03:29:07;9.48;;;4.35;;
45039;SDS011;30778;53.574;7.770;2023-04-15T03:31:33;9.48;;;4.50;;
45039;SDS011;30778;53.574;7.770;2023-04-15T03:33:58;8.57;;;4.65;;
45039;SDS011;30778;53.574;7.770;2023-04-15T03:36:24;9.25;;;4.45;;
45039;SDS011;30778;53.574;7.770;2023-04-15T03:38:50;8.02;;;3.78;;
45039;SDS011;30778;53.574;7.770;2023-04-15T03:41:15;8.85;;;3.65;;
45039;SDS011;30778;53.574;7.770;2023-04-15T03:43:43;7.22;;;3.65;;
45039;SDS011;30778;53.574;7.770;2023-04-15T03:46:08;6.15;;;3.22;;
45039;SDS011;30778;53.574;7.770;2023-04-15T03:48:34;8.90;;;3.70;;
45039;SDS011;30778;53.574;7.770;2023-04-15T03:51:00;5.85;;;3.35;;
45039;SDS011;30778;53.574;7.770;2023-04-15T03:53:25;9.38;;;3.33;;
45039;SDS011;30778;53.574;7.770;2023-04-15T03:55:51;8.60;;;3.78;;
45039;SDS011;30778;53.574;7.770;2023-04-15T03:58:16;6.55;;;3.80;;
45039;SDS011;30778;53.574;7.770;2023-04-15T04:00:42;7.95;;;4.30;;
45039;SDS011;30778;53.574;7.770;2023-04-15T04:03:08;8.07;;;3.78;;
45039;SDS011;30778;53.574;7.770;2023-04-15T04:05:33;10.35;;;4.18;;
45039;SDS011;30778;53.574;7.770;2023-04-15T04:08:01;8.55;;;4.20;;
45039;SDS011;30778;53.574;7.770;2023-04-15T04:10:26;6.72;;;4.07;;
45039;SDS011;30778;53.574;7.770;2023-04-15T04:12:52;9.65;;;4.82;;
45039;SDS011;30778;53.574;7.770;2023-04-15T04:15:17;12.80;;;4.93;;
45039;SDS011;30778;53.574;7.770;2023-04-15T04:17:43;10.73;;;4.22;;
45039;SDS011;30778;53.574;7.770;2023-04-15T04:20:08;10.50;;;5.93;;
45039;SDS011;30778;53.574;7.770;2023-04-15T04:22:37;13.05;;;5.43;;
45039;SDS011;30778;53.574;7.770;2023-04-15T04:25:04;11.13;;;5.78;;
45039;SDS011;30778;53.574;7.770;2023-04-15T04:27:29;10.10;;;5.20;;
45039;SDS011;30778;53.574;7.770;2023-04-15T04:29:55;9.57;;;4.65;;
45039;SDS011;30778;53.574;7.770;2023-04-15T04:32:20;10.10;;;4.03;;
45039;SDS011;30778;53.574;7.770;2023-04-15T04:34:46;8.68;;;4.18;;
45039;SDS011;30778;53.574;7.770;2023-04-15T04:37:12;9.18;;;4.28;;
45039;SDS011;30778;53.574;7.770;2023-04-15T04:39:38;10.75;;;5.47;;
45039;SDS011;30778;53.574;7.770;2023-04-15T04:42:03;6.95;;;4.30;;
45039;SDS011;30778;53.574;7.770;2023-04-15T04:44:29;9.55;;;5.30;;
45039;SDS011;30778;53.574;7.770;2023-04-15T04:46:54;11.25;;;5.03;;
45039;SDS011;30778;53.574;7.770;2023-04-15T04:49:20;11.13;;;6.40;;
45039;SDS011;30778;53.574;7.770;2023-04-15T04:51:45;16.05;;;5.93;;
45039;SDS011;30778;53.574;7.770;2023-04-15T04:54:12;13.63;;;5.90;;
45039;SDS011;30778;53.574;7.770;2023-04-15T04:56:37;9.45;;;5.10;;
45039;SDS011;30778;53.574;7.770;2023-04-15T04:59:04;9.68;;;5.43;;
45039;SDS011;30778;53.574;7.770;2023-04-15T05:01:29;8.52;;;4.47;;
45039;SDS011;30778;53.574;7.770;2023-04-15T05:03:55;9.75;;;5.57;;
45039;SDS011;30778;53.574;7.770;2023-04-15T05:06:20;8.38;;;5.15;;
45039;SDS011;30778;53.574;7.770;2023-04-15T05:08:46;11.02;;;5.53;;
45039;SDS011;30778;53.574;7.770;2023-04-15T05:11:14;10.45;;;5.47;;
45039;SDS011;30778;53.574;7.770;2023-04-15T05:13:42;9.13;;;6.28;;
45039;SDS011;30778;53.574;7.770;2023-04-15T05:16:08;9.18;;;5.45;;
45039;SDS011;30778;53.574;7.770;2023-04-15T05:18:33;7.50;;;5.25;;
45039;SDS011;30778;53.574;7.770;2023-04-15T05:20:59;9.45;;;5.18;;
45039;SDS011;30778;53.574;7.770;2023-04-15T05:23:24;9.68;;;5.55;;
45039;SDS011;30778;53.574;7.770;2023-04-15T05:25:50;8.23;;;5.18;;
45039;SDS011;30778;53.574;7.770;2023-04-15T05:28:15;9.82;;;5.35;;
45039;SDS011;30778;53.574;7.770;2023-04-15T05:30:41;12.68;;;5.35;;
45039;SDS011;30778;53.574;7.770;2023-04-15T05:33:06;12.90;;;5.75;;
45039;SDS011;30778;53.574;7.770;2023-04-15T05:35:33;8.15;;;4.38;;
45039;SDS011;30778;53.574;7.770;2023-04-15T05:37:58;8.50;;;3.95;;
45039;SDS011;30778;53.574;7.770;2023-04-15T05:40:24;9.35;;;4.10;;
45039;SDS011;30778;53.574;7.770;2023-04-15T05:42:50;9.90;;;4.53;;
45039;SDS011;30778;53.574;7.770;2023-04-15T05:45:16;8.18;;;3.88;;
45039;SDS011;30778;53.574;7.770;2023-04-15T05:47:41;8.10;;;4.07;;
45039;SDS011;30778;53.574;7.770;2023-04-15T05:50:07;8.98;;;4.78;;
45039;SDS011;30778;53.574;7.770;2023-04-15T05:52:32;11.15;;;5.05;;
45039;SDS011;30778;53.574;7.770;2023-04-15T05:55:00;10.75;;;4.30;;
45039;SDS011;30778;53.574;7.770;2023-04-15T05:57:28;9.57;;;4.75;;
45039;SDS011;30778;53.574;7.770;2023-04-15T05:59:53;9.65;;;4.70;;
45039;SDS011;30778;53.574;7.770;2023-04-15T06:02:21;7.40;;;3.47;;
45039;SDS011;30778;53.574;7.770;2023-04-15T06:04:46;9.73;;;3.47;;
45039;SDS011;30778;53.574;7.770;2023-04-15T06:07:12;8.50;;;4.07;;
45039;SDS011;30778;53.574;7.770;2023-04-15T06:09:38;8.32;;;3.58;;
45039;SDS011;30778;53.574;7.770;2023-04-15T06:12:03;5.97;;;3.47;;
45039;SDS011;30778;53.574;7.770;2023-04-15T06:14:30;8.82;;;3.72;;
45039;SDS011;30778;53.574;7.770;2023-04-15T06:16:56;7.57;;;3.80;;
45039;SDS011;30778;53.574;7.770;2023-04-15T06:19:21;8.00;;;3.25;;
45039;SDS011;30778;53.574;7.770;2023-04-15T06:21:47;9.48;;;3.42;;
45039;SDS011;30778;53.574;7.770;2023-04-15T06:24:12;9.82;;;4.32;;
45039;SDS011;30778;53.574;7.770;2023-04-15T06:26:38;6.13;;;2.80;;
45039;SDS011;30778;53.574;7.770;2023-04-15T06:29:03;8.20;;;3.83;;
45039;SDS011;30778;53.574;7.770;2023-04-15T06:31:29;10.48;;;2.83;;
45039;SDS011;30778;53.574;7.770;2023-04-15T06:33:54;6.38;;;3.20;;
45039;SDS011;30778;53.574;7.770;2023-04-15T06:36:20;7.35;;;3.00;;
45039;SDS011;30778;53.574;7.770;2023-04-15T06:38:45;7.15;;;2.85;;
45039;SDS011;30778;53.574;7.770;2023-04-15T06:41:11;8.23;;;2.97;;
45039;SDS011;30778;53.574;7.770;2023-04-15T06:43:37;8.05;;;3.05;;
45039;SDS011;30778;53.574;7.770;2023-04-15T06:46:03;6.40;;;3.17;;
45039;SDS011;30778;53.574;7.770;2023-04-15T06:48:28;6.20;;;3.70;;
45039;SDS011;30778;53.574;7.770;2023-04-15T06:50:56;7.25;;;3.53;;
45039;SDS011;30778;53.574;7.770;2023-04-15T06:53:24;7.90;;;3.17;;
45039;SDS011;30778;53.574;7.770;2023-04-15T06:55:52;8.88;;;3.55;;
45039;SDS011;30778;53.574;7.770;2023-04-15T06:58:17;5.80;;;3.30;;
45039;SDS011;30778;53.574;7.770;2023-04-15T07:00:43;8.20;;;3.47;;
45039;SDS011;30778;53.574;7.770;2023-04-15T07:03:08;8.90;;;2.92;;
45039;SDS011;30778;53.574;7.770;2023-04-15T07:05:35;10.82;;;3.67;;
45039;SDS011;30778;53.574;7.770;2023-04-15T07:08:00;8.35;;;3.83;;
45039;SDS011;30778;53.574;7.770;2023-04-15T07:10:26;6.50;;;3.17;;
45039;SDS011;30778;53.574;7.770;2023-04-15T07:12:51;9.98;;;3.20;;
45039;SDS011;30778;53.574;7.770;2023-04-15T07:15:17;8.68;;;3.60;;
45039;SDS011;30778;53.574;7.770;2023-04-15T07:17:43;6.35;;;3.00;;
45039;SDS011;30778;53.574;7.770;2023-04-15T07:20:08;4.15;;;2.58;;
45039;SDS011;30778;53.574;7.770;2023-04-15T07:22:34;5.90;;;3.15;;
45039;SDS011;30778;53.574;7.770;2023-04-15T07:24:59;7.80;;;3.50;;
45039;SDS011;30778;53.574;7.770;2023-04-15T07:27:25;7.03;;;3.35;;
45039;SDS011;30778;53.574;7.770;2023-04-15T07:29:51;6.78;;;2.92;;
45039;SDS011;30778;53.574;7.770;2023-04-15T07:32:17;7.93;;;3.28;;
45039;SDS011;30778;53.574;7.770;2023-04-15T07:34:43;6.65;;;2.85;;
45039;SDS011;30778;53.574;7.770;2023-04-15T07:37:09;8.90;;;2.72;;
45039;SDS011;30778;53.574;7.770;2023-04-15T07:39:34;6.85;;;2.50;;
45039;SDS011;30778;53.574;7.770;2023-04-15T07:42:01;7.53;;;2.95;;
45039;SDS011;30778;53.574;7.770;2023-04-15T07:44:28;7.30;;;3.10;;
45039;SDS011;30778;53.574;7.770;2023-04-15T07:46:54;9.13;;;2.58;;
45039;SDS011;30778;53.574;7.770;2023-04-15T07:49:20;7.72;;;4.13;;
45039;SDS011;30778;53.574;7.770;2023-04-15T07:51:45;6.22;;;3.50;;
45039;SDS011;30778;53.574;7.770;2023-04-15T07:54:11;4.78;;;2.58;;
45039;SDS011;30778;53.574;7.770;2023-04-15T07:56:36;11.52;;;3.28;;
45039;SDS011;30778;53.574;7.770;2023-04-15T07:59:05;9.32;;;4.18;;
45039;SDS011;30778;53.574;7.770;2023-04-15T08:01:31;6.57;;;3.00;;
45039;SDS011;30778;53.574;7.770;2023-04-15T08:03:57;8.32;;;3.08;;
45039;SDS011;30778;53.574;7.770;2023-04-15T08:06:23;6.82;;;3.10;;
45039;SDS011;30778;53.574;7.770;2023-04-15T08:08:49;6.55;;;2.47;;
45039;SDS011;30778;53.574;7.770;2023-04-15T08:11:15;7.45;;;2.90;;
45039;SDS011;30778;53.574;7.770;2023-04-15T08:13:41;7.63;;;3.30;;
45039;SDS011;30778;53.574;7.770;2023-04-15T08:18:47;6.05;;;2.85;;
45039;SDS011;30778;53.574;7.770;2023-04-15T08:21:14;5.47;;;2.60;;
45039;SDS011;30778;53.574;7.770;2023-04-15T08:23:46;9.15;;;2.60;;
45039;SDS011;30778;53.574;7.770;2023-04-15T08:26:13;6.90;;;3.05;;
45039;SDS011;30778;53.574;7.770;2023-04-15T08:28:39;6.43;;;2.33;;
45039;SDS011;30778;53.574;7.770;2023-04-15T08:31:05;11.80;;;2.90;;
45039;SDS011;30778;53.574;7.770;2023-04-15T08:33:31;7.78;;;3.00;;
45039;SDS011;30778;53.574;7.770;2023-04-15T08:35:57;5.93;;;2.25;;
45039;SDS011;30778;53.574;7.770;2023-04-15T08:38:22;6.13;;;2.55;;
45039;SDS011;30778;53.574;7.770;2023-04-15T08:40:48;8.10;;;2.50;;
45039;SDS011;30778;53.574;7.770;2023-04-15T08:43:14;6.63;;;2.85;;
45039;SDS011;30778;53.574;7.770;2023-04-15T08:48:14;4.32;;;3.00;;
45039;SDS011;30778;53.574;7.770;2023-04-15T08:50:42;3.53;;;1.92;;
45039;SDS011;30778;53.574;7.770;2023-04-15T08:53:09;5.65;;;2.25;;
45039;SDS011;30778;53.574;7.770;2023-04-15T08:55:36;6.20;;;2.05;;
45039;SDS011;30778;53.574;7.770;2023-04-15T08:58:07;7.10;;;2.35;;
45039;SDS011;30778;53.574;7.770;2023-04-15T09:00:35;6.45;;;2.10;;
45039;SDS011;30778;53.574;7.770;2023-04-15T09:03:01;4.75;;;1.70;;
45039;SDS011;30778;53.574;7.770;2023-04-15T09:05:31;5.82;;;2.70;;
45039;SDS011;30778;53.574;7.770;2023-04-15T09:07:58;5.72;;;2.03;;
45039;SDS011;30778;53.574;7.770;2023-04-15T09:10:26;2.80;;;1.77;;
45039;SDS011;30778;53.574;7.770;2023-04-15T09:12:52;5.03;;;2.22;;
45039;SDS011;30778;53.574;7.770;2023-04-15T09:15:18;7.47;;;1.88;;
45039;SDS011;30778;53.574;7.770;2023-04-15T09:17:44;4.22;;;1.50;;
45039;SDS011;30778;53.574;7.770;2023-04-15T09:20:13;5.80;;;2.17;;
45039;SDS011;30778;53.574;7.770;2023-04-15T09:22:40;2.15;;;1.25;;
45039;SDS011;30778;53.574;7.770;2023-04-15T09:27:52;6.70;;;1.80;;
45039;SDS011;30778;53.574;7.770;2023-04-15T09:30:21;5.07;;;1.83;;
45039;SDS011;30778;53.574;7.770;2023-04-15T09:32:54;4.13;;;1.27;;
45039;SDS011;30778;53.574;7.770;2023-04-15T09:35:22;7.25;;;2.15;;
45039;SDS011;30778;53.574;7.770;2023-04-15T09:37:49;5.40;;;1.35;;
45039;SDS011;30778;53.574;7.770;2023-04-15T09:43:07;3.92;;;1.27;;
45039;SDS011;30778;53.574;7.770;2023-04-15T09:45:34;3.97;;;1.40;;
45039;SDS011;30778;53.574;7.770;2023-04-15T09:50:46;2.10;;;1.05;;
45039;SDS011;30778;53.574;7.770;2023-04-15T09:53:21;7.53;;;1.50;;
45039;SDS011;30778;53.574;7.770;2023-04-15T09:55:54;4.82;;;1.50;;
45039;SDS011;30778;53.574;7.770;2023-04-15T09:58:22;3.45;;;1.33;;
45039;SDS011;30778;53.574;7.770;2023-04-15T10:00:54;7.03;;;1.48;;
45039;SDS011;30778;53.574;7.770;2023-04-15T10:03:24;3.20;;;1.27;;
45039;SDS011;30778;53.574;7.770;2023-04-15T10:05:52;7.38;;;1.77;;
45039;SDS011;30778;53.574;7.770;2023-04-15T10:08:21;12.02;;;1.33;;
45039;SDS011;30778;53.574;7.770;2023-04-15T10:10:49;8.38;;;2.53;;
45039;SDS011;30778;53.574;7.770;2023-04-15T10:13:25;2.95;;;0.95;;
45039;SDS011;30778;53.574;7.770;2023-04-15T10:16:26;5.53;;;1.13;;
45039;SDS011;30778;53.574;7.770;2023-04-15T10:18:45;3.70;;;1.67;;
45039;SDS011;30778;53.574;7.770;2023-04-15T10:21:14;5.68;;;1.10;;
45039;SDS011;30778;53.574;7.770;2023-04-15T10:23:43;3.88;;;0.80;;
45039;SDS011;30778;53.574;7.770;2023-04-15T10:26:09;9.43;;;1.50;;
45039;SDS011;30778;53.574;7.770;2023-04-15T10:28:37;3.10;;;1.17;;
45039;SDS011;30778;53.574;7.770;2023-04-15T10:31:02;4.32;;;1.27;;
45039;SDS011;30778;53.574;7.770;2023-04-15T10:33:30;7.78;;;1.60;;
45039;SDS011;30778;53.574;7.770;2023-04-15T10:35:56;2.47;;;0.98;;
45039;SDS011;30778;53.574;7.770;2023-04-15T10:43:48;8.13;;;1.63;;
45039;SDS011;30778;53.574;7.770;2023-04-15T10:46:21;1.90;;;1.02;;
45039;SDS011;30778;53.574;7.770;2023-04-15T10:48:51;4.25;;;0.93;;
45039;SDS011;30778;53.574;7.770;2023-04-15T10:51:30;4.63;;;1.52;;
45039;SDS011;30778;53.574;7.770;2023-04-15T10:53:56;3.10;;;1.20;;
45039;SDS011;30778;53.574;7.770;2023-04-15T10:56:23;3.75;;;1.40;;
45039;SDS011;30778;53.574;7.770;2023-04-15T10:58:49;2.45;;;1.08;;
45039;SDS011;30778;53.574;7.770;2023-04-15T11:01:15;5.32;;;1.10;;
45039;SDS011;30778;53.574;7.770;2023-04-15T11:03:41;7.20;;;1.17;;
45039;SDS011;30778;53.574;7.770;2023-04-15T11:06:07;7.15;;;1.80;;
45039;SDS011;30778;53.574;7.770;2023-04-15T11:08:52;1.98;;;0.93;;
45039;SDS011;30778;53.574;7.770;2023-04-15T11:11:20;5.65;;;1.17;;
45039;SDS011;30778;53.574;7.770;2023-04-15T11:13:49;4.10;;;1.00;;
45039;SDS011;30778;53.574;7.770;2023-04-15T11:16:17;10.55;;;1.58;;
45039;SDS011;30778;53.574;7.770;2023-04-15T11:18:52;9.95;;;1.77;;
45039;SDS011;30778;53.574;7.770;2023-04-15T11:21:18;4.50;;;1.63;;
45039;SDS011;30778;53.574;7.770;2023-04-15T11:23:49;7.80;;;0.90;;
45039;SDS011;30778;53.574;7.770;2023-04-15T11:26:15;6.13;;;1.10;;
45039;SDS011;30778;53.574;7.770;2023-04-15T11:28:43;4.32;;;1.10;;
45039;SDS011;30778;53.574;7.770;2023-04-15T11:31:13;8.45;;;1.30;;
45039;SDS011;30778;53.574;7.770;2023-04-15T11:33:44;6.45;;;0.85;;
45039;SDS011;30778;53.574;7.770;2023-04-15T11:36:27;5.15;;;1.20;;
45039;SDS011;30778;53.574;7.770;2023-04-15T11:38:54;9.02;;;2.88;;
45039;SDS011;30778;53.574;7.770;2023-04-15T11:41:22;12.23;;;3.38;;
45039;SDS011;30778;53.574;7.770;2023-04-15T11:43:50;11.75;;;2.47;;
45039;SDS011;30778;53.574;7.770;2023-04-15T11:46:16;20.88;;;1.60;;
45039;SDS011;30778;53.574;7.770;2023-04-15T11:48:43;6.22;;;1.38;;
45039;SDS011;30778;53.574;7.770;2023-04-15T11:51:11;6.05;;;2.10;;
45039;SDS011;30778;53.574;7.770;2023-04-15T11:53:38;4.18;;;1.38;;
45039;SDS011;30778;53.574;7.770;2023-04-15T11:56:05;4.90;;;1.45;;
45039;SDS011;30778;53.574;7.770;2023-04-15T11:58:33;4.45;;;1.67;;
45039;SDS011;30778;53.574;7.770;2023-04-15T12:01:04;10.05;;;2.17;;
45039;SDS011;30778;53.574;7.770;2023-04-15T12:03:37;5.10;;;1.42;;
45039;SDS011;30778;53.574;7.770;2023-04-15T12:09:16;6.65;;;1.75;;
45039;SDS011;30778;53.574;7.770;2023-04-15T12:11:48;4.55;;;1.10;;
45039;SDS011;30778;53.574;7.770;2023-04-15T12:14:25;13.50;;;1.08;;
45039;SDS011;30778;53.574;7.770;2023-04-15T12:22:07;6.38;;;1.52;;
45039;SDS011;30778;53.574;7.770;2023-04-15T12:24:34;8.80;;;2.42;;
45039;SDS011;30778;53.574;7.770;2023-04-15T12:27:05;5.88;;;1.73;;
45039;SDS011;30778;53.574;7.770;2023-04-15T12:29:33;6.90;;;1.67;;
45039;SDS011;30778;53.574;7.770;2023-04-15T12:32:10;5.18;;;1.80;;
45039;SDS011;30778;53.574;7.770;2023-04-15T12:34:37;10.98;;;2.45;;
45039;SDS011;30778;53.574;7.770;2023-04-15T12:37:05;7.63;;;2.25;;
45039;SDS011;30778;53.574;7.770;2023-04-15T12:39:34;10.15;;;2.78;;
45039;SDS011;30778;53.574;7.770;2023-04-15T12:42:02;7.40;;;1.92;;
45039;SDS011;30778;53.574;7.770;2023-04-15T12:44:29;7.07;;;2.67;;
45039;SDS011;30778;53.574;7.770;2023-04-15T12:46:55;13.27;;;3.08;;
45039;SDS011;30778;53.574;7.770;2023-04-15T12:49:20;18.05;;;4.03;;
45039;SDS011;30778;53.574;7.770;2023-04-15T12:51:54;9.07;;;3.97;;
45039;SDS011;30778;53.574;7.770;2023-04-15T12:54:20;11.90;;;4.88;;
45039;SDS011;30778;53.574;7.770;2023-04-15T12:56:46;12.40;;;4.55;;
45039;SDS011;30778;53.574;7.770;2023-04-15T12:59:14;18.23;;;5.90;;
45039;SDS011;30778;53.574;7.770;2023-04-15T13:01:41;12.13;;;5.90;;
45039;SDS011;30778;53.574;7.770;2023-04-15T13:04:07;12.85;;;4.47;;
45039;SDS011;30778;53.574;7.770;2023-04-15T13:06:32;14.45;;;5.75;;
45039;SDS011;30778;53.574;7.770;2023-04-15T13:08:58;15.70;;;5.05;;
45039;SDS011;30778;53.574;7.770;2023-04-15T13:11:27;23.13;;;5.97;;
45039;SDS011;30778;53.574;7.770;2023-04-15T13:13:57;11.05;;;5.32;;
45039;SDS011;30778;53.574;7.770;2023-04-15T13:16:26;16.73;;;5.28;;
45039;SDS011;30778;53.574;7.770;2023-04-15T13:18:52;18.73;;;7.00;;
45039;SDS011;30778;53.574;7.770;2023-04-15T13:21:17;14.27;;;5.97;;
45039;SDS011;30778;53.574;7.770;2023-04-15T13:23:43;18.13;;;5.70;;
45039;SDS011;30778;53.574;7.770;2023-04-15T13:26:09;16.42;;;7.32;;
45039;SDS011;30778;53.574;7.770;2023-04-15T13:28:36;22.20;;;8.70;;
45039;SDS011;30778;53.574;7.770;2023-04-15T13:31:02;21.13;;;7.75;;
45039;SDS011;30778;53.574;7.770;2023-04-15T13:33:27;25.48;;;9.55;;
45039;SDS011;30778;53.574;7.770;2023-04-15T13:35:53;21.95;;;9.05;;
45039;SDS011;30778;53.574;7.770;2023-04-15T13:38:18;21.15;;;7.82;;
45039;SDS011;30778;53.574;7.770;2023-04-15T13:40:44;22.33;;;7.90;;
45039;SDS011;30778;53.574;7.770;2023-04-15T13:43:10;24.70;;;7.70;;
45039;SDS011;30778;53.574;7.770;2023-04-15T13:45:36;24.42;;;9.35;;
45039;SDS011;30778;53.574;7.770;2023-04-15T13:48:01;25.80;;;7.68;;
45039;SDS011;30778;53.574;7.770;2023-04-15T13:50:27;27.50;;;8.18;;
45039;SDS011;30778;53.574;7.770;2023-04-15T13:52:53;33.45;;;9.27;;
45039;SDS011;30778;53.574;7.770;2023-04-15T13:55:18;25.65;;;9.05;;
45039;SDS011;30778;53.574;7.770;2023-04-15T13:57:44;23.25;;;8.60;;
45039;SDS011;30778;53.574;7.770;2023-04-15T14:00:10;24.25;;;9.25;;
45039;SDS011;30778;53.574;7.770;2023-04-15T14:02:36;25.45;;;9.30;;
45039;SDS011;30778;53.574;7.770;2023-04-15T14:05:01;25.65;;;9.15;;
45039;SDS011;30778;53.574;7.770;2023-04-15T14:07:28;35.05;;;10.52;;
45039;SDS011;30778;53.574;7.770;2023-04-15T14:09:54;37.38;;;9.85;;
45039;SDS011;30778;53.574;7.770;2023-04-15T14:12:20;42.28;;;12.30;;
45039;SDS011;30778;53.574;7.770;2023-04-15T14:14:48;19.13;;;9.07;;
45039;SDS011;30778;53.574;7.770;2023-04-15T14:17:14;32.92;;;10.88;;
45039;SDS011;30778;53.574;7.770;2023-04-15T14:19:39;27.27;;;10.77;;
45039;SDS011;30778;53.574;7.770;2023-04-15T14:22:05;27.50;;;10.60;;
45039;SDS011;30778;53.574;7.770;2023-04-15T14:24:30;45.42;;;14.13;;
45039;SDS011;30778;53.574;7.770;2023-04-15T14:26:55;41.28;;;13.55;;
45039;SDS011;30778;53.574;7.770;2023-04-15T14:29:21;31.05;;;12.30;;
45039;SDS011;30778;53.574;7.770;2023-04-15T14:31:47;38.28;;;13.45;;
45039;SDS011;30778;53.574;7.770;2023-04-15T14:34:14;37.13;;;13.05;;
45039;SDS011;30778;53.574;7.770;2023-04-15T14:36:40;33.03;;;11.93;;
45039;SDS011;30778;53.574;7.770;2023-04-15T14:39:06;35.35;;;12.63;;
45039;SDS011;30778;53.574;7.770;2023-04-15T14:41:32;38.80;;;13.30;;
45039;SDS011;30778;53.574;7.770;2023-04-15T14:43:58;42.10;;;13.13;;
45039;SDS011;30778;53.574;7.770;2023-04-15T14:46:24;32.88;;;11.48;;
45039;SDS011;30778;53.574;7.770;2023-04-15T14:48:50;29.77;;;11.23;;
45039;SDS011;30778;53.574;7.770;2023-04-15T14:51:15;35.83;;;13.52;;
45039;SDS011;30778;53.574;7.770;2023-04-15T14:53:41;42.63;;;14.07;;
45039;SDS011;30778;53.574;7.770;2023-04-15T14:56:06;37.40;;;14.15;;
45039;SDS011;30778;53.574;7.770;2023-04-15T14:58:32;32.38;;;13.05;;
45039;SDS011;30778;53.574;7.770;2023-04-15T15:00:58;27.17;;;11.90;;
45039;SDS011;30778;53.574;7.770;2023-04-15T15:03:23;33.78;;;13.43;;
45039;SDS011;30778;53.574;7.770;2023-04-15T15:05:52;42.17;;;12.77;;
45039;SDS011;30778;53.574;7.770;2023-04-15T15:08:18;29.95;;;11.95;;